Latest Weather Observations for Busselton Airport

IDW60801

Issued at 8:03 pm WST Tuesday 6 December 2016 (issued every 30 minutes, with the page automatically refreshed every 10 minutes)

About weather observations | Map of weather stations | Latest weather observations for WA | Other Formats
Station Details ID: 009603 Name: BUSSELTON AERO Lat: -33.69 Lon: 115.40 Height: 16.3 m
Data from the previous 72 hours. | See also: Recent months at Busselton Airport
Date/Time
WST
Temp
°C
App
Temp
°C
Dew
Point
°C
Rel
Hum
%
Delta-T
°C
Wind Press
QNH
hPa
Press
MSL
hPa
Rain since
9am
mm
Dir  Spd
km/h
Gust
km/h
Spd
kts
Gust
kts
06/08:00pm 18.0 17.1 12.5 70 3.1 W 9 11 5 6 1014.5 1014.5 0.0
06/07:30pm 18.2 15.7 12.2 68 3.3 W 17 26 9 14 1014.5 1014.5 0.0
06/07:00pm 18.9 17.0 11.7 63 4.0 WSW 13 17 7 9 1014.2 1014.2 0.0
06/06:30pm 19.0 16.2 11.3 61 4.2 WSW 17 24 9 13 1014.2 1014.2 0.0
06/06:00pm 19.6 17.2 11.4 59 4.5 WSW 15 20 8 11 1014.0 1014.0 0.0
06/05:30pm 19.6 16.6 11.9 61 4.3 W 19 28 10 15 1013.9 1013.9 0.0
06/05:00pm 19.6 16.4 11.9 61 4.3 WSW 20 30 11 16 1013.7 1013.7 0.0
06/04:30pm 20.0 16.6 12.5 62 4.2 W 22 32 12 17 1013.8 1013.8 0.0
06/04:00pm 21.3 18.1 11.3 53 5.5 W 19 32 10 17 1013.6 1013.6 0.0
06/03:30pm 22.0 18.6 11.1 50 6.0 W 20 32 11 17 1013.7 1013.7 0.0
06/03:00pm 22.4 18.8 10.5 47 6.5 W 20 33 11 18 1013.9 1013.9 0.0
06/02:30pm 22.4 18.8 9.9 45 6.8 SW 19 32 10 17 1014.2 1014.2 0.0
06/02:00pm 22.1 18.0 8.6 42 7.1 SW 20 33 11 18 1014.6 1014.6 0.0
06/01:30pm 22.1 17.9 9.6 45 6.7 SW 22 32 12 17 1015.0 1015.0 0.0
06/01:00pm 21.8 18.7 10.3 48 6.3 WNW 17 24 9 13 1015.2 1015.2 0.0
06/12:30pm 21.7 18.1 11.7 53 5.6 NNW 22 28 12 15 1015.4 1015.4 0.0
06/12:00pm 21.0 16.7 10.8 52 5.6 NNW 24 33 13 18 1015.8 1015.8 0.0
06/11:30am 21.4 17.6 11.1 52 5.7 NNW 22 30 12 16 1016.2 1016.2 0.0
06/11:00am 20.4 17.1 10.8 54 5.2 NNW 19 28 10 15 1016.6 1016.6 0.0
06/10:30am 19.6 16.2 10.6 56 4.9 NNW 19 32 10 17 1017.0 1017.0 0.0
06/10:00am 20.2 16.8 10.6 54 5.2 NW 19 26 10 14 1017.3 1017.3 0.0
06/09:30am 19.9 17.1 11.4 58 4.7 NNW 17 22 9 12 1017.4 1017.4 0.0
06/09:00am 18.7 16.6 11.0 61 4.2 NNW 13 24 7 13 1017.5 1017.5 0.0
06/08:30am 17.7 16.3 11.0 65 3.6 NNW 9 17 5 9 1017.7 1017.7 0.0
06/08:00am 17.2 16.3 11.5 69 3.1 N 7 11 4 6 1017.8 1017.8 0.0
06/07:30am 14.9 13.7 12.9 88 1.1 NE 11 13 6 7 1017.8 1017.8 0.0
06/07:00am 12.6 11.9 12.1 97 0.3 ENE 7 9 4 5 1017.7 1017.7 0.0
06/06:30am 11.1 10.1 10.9 99 0.1 ENE 7 9 4 5 1017.7 1017.7 0.0
06/06:00am 8.2 6.6 7.9 98 0.1 ESE 6 7 3 4 1017.4 1017.4 0.0
06/05:30am 5.7 3.8 5.1 96 0.3 ESE 4 6 2 3 1017.1 1017.1 0.0
06/05:00am 5.9 3.7 5.2 95 0.3 ESE 6 6 3 3 1016.9 1016.9 0.0
06/04:30am 6.1 3.9 5.4 95 0.3 SSE 6 6 3 3 1016.7 1016.7 0.0
06/04:00am 6.3 4.0 5.6 95 0.3 SE 7 9 4 5 1016.5 1016.5 0.0
06/03:30am 6.2 4.7 5.2 93 0.4 ENE 2 7 1 4 1016.5 1016.5 0.0
06/03:00am 7.0 6.1 5.9 93 0.5 CALM 0 6 0 3 1016.5 1016.5 0.0
06/02:30am 7.8 6.3 6.7 93 0.5 SSE 4 6 2 3 1016.6 1016.6 0.0
06/02:00am 8.1 7.0 6.9 92 0.6 SE 2 7 1 4 1016.7 1016.7 0.0
06/01:30am 8.3 6.3 6.9 91 0.7 ESE 7 9 4 5 1016.6 1016.6 0.0
06/01:00am 8.8 8.1 7.1 89 0.8 CALM 0 0 0 0 1016.8 1016.8 0.0
06/12:30am 10.1 9.7 8.4 89 0.8 CALM 0 0 0 0 1017.0 1017.0 0.0
06/12:00am 9.9 9.4 7.8 87 1.0 CALM 0 0 0 0 1017.2 1017.2 0.0
 
Date/Time
WST
Temp
°C
App
Temp
°C
Dew
Point
°C
Rel
Hum
%
Delta-T
°C
Wind Press
QNH
hPa
Press
MSL
hPa
Rain since
9am
mm
Dir  Spd
km/h
Gust
km/h
Spd
kts
Gust
kts
05/11:30pm 11.2 10.9 8.8 85 1.2 CALM 0 0 0 0 1017.2 1017.2 0.0
05/11:00pm 12.3 12.3 9.7 84 1.3 CALM 0 2 0 1 1017.3 1017.3 0.0
05/10:30pm 11.9 10.9 8.9 82 1.5 SSE 4 6 2 3 1017.1 1017.1 0.0
05/10:00pm 12.4 10.5 9.2 81 1.6 SSW 9 11 5 6 1017.3 1017.3 0.0
05/09:30pm 13.8 12.0 9.5 75 2.2 SW 9 13 5 7 1017.1 1017.1 0.0
05/09:00pm 14.4 13.0 9.4 72 2.6 S 7 9 4 5 1016.9 1016.9 0.0
05/08:30pm 15.4 13.4 10.2 71 2.7 SW 11 13 6 7 1016.8 1016.8 0.0
05/08:00pm 16.2 13.9 10.3 68 3.1 SW 13 17 7 9 1016.7 1016.7 0.0
05/07:30pm 16.7 14.3 10.1 65 3.5 SW 13 17 7 9 1016.4 1016.4 0.0
05/07:00pm 18.2 15.1 10.3 60 4.2 SW 17 20 9 11 1016.1 1016.1 0.0
05/06:30pm 19.4 16.4 10.7 57 4.7 SW 17 22 9 12 1015.8 1015.8 0.0
05/06:00pm 20.2 17.2 10.6 54 5.2 WSW 17 24 9 13 1015.4 1015.4 0.0
05/05:30pm 20.1 16.9 11.1 56 4.9 SW 19 28 10 15 1015.2 1015.2 0.0
05/05:00pm 19.6 16.2 11.4 59 4.5 SW 20 28 11 15 1015.2 1015.2 0.0
05/04:30pm 19.3 15.4 10.8 58 4.6 SW 22 28 12 15 1015.3 1015.3 0.0
05/04:00pm 20.2 15.2 10.9 55 5.1 WSW 28 37 15 20 1015.2 1015.2 0.0
05/03:30pm 22.0 17.5 9.9 46 6.6 WSW 24 33 13 18 1014.7 1014.7 0.0
05/03:00pm 23.3 18.6 9.3 41 7.6 WSW 24 33 13 18 1014.5 1014.5 0.0
05/02:30pm 22.9 18.9 9.0 41 7.4 W 20 32 11 17 1014.3 1014.3 0.0
05/02:00pm 21.3 19.1 9.2 46 6.4 WSW 11 22 6 12 1014.3 1014.3 0.0
05/01:30pm 21.7 18.7 10.5 49 6.1 NW 17 28 9 15 1014.3 1014.3 0.0
05/01:00pm 20.1 16.5 10.5 54 5.2 NW 20 30 11 16 1014.7 1014.7 0.0
05/12:30pm 19.8 16.1 10.0 53 5.3 NNW 20 28 11 15 1015.0 1015.0 0.0
05/12:00pm 18.8 15.1 9.6 55 4.9 NNW 19 28 10 15 1015.1 1015.1 0.0
05/11:30am 18.4 15.1 9.5 56 4.7 NNW 17 24 9 13 1015.2 1015.2 0.0
05/11:00am 18.7 14.9 9.2 54 5.0 NW 19 26 10 14 1015.2 1015.2 0.0
05/10:30am 18.7 15.4 9.5 55 4.9 NNW 17 22 9 12 1015.5 1015.5 0.0
05/10:00am 18.7 16.5 9.2 54 5.0 NNW 11 20 6 11 1015.6 1015.6 0.0
05/09:30am 18.1 15.8 8.9 55 4.8 N 11 17 6 9 1015.7 1015.7 0.0
05/09:00am 17.2 14.8 8.6 57 4.4 N 11 15 6 8 1016.0 1016.0 0.0
05/08:30am 17.1 15.0 8.3 56 4.5 NNW 9 13 5 7 1016.1 1016.1 0.0
05/08:00am 17.0 15.0 8.7 58 4.3 N 9 13 5 7 1016.2 1016.2 0.0
05/07:30am 14.8 12.7 8.3 65 3.3 NE 9 11 5 6 1016.2 1016.2 0.0
05/07:00am 12.7 11.0 8.2 74 2.2 ENE 7 9 4 5 1016.2 1016.2 0.0
05/06:30am 10.8 10.6 8.9 88 0.9 CALM 0 0 0 0 1016.1 1016.1 0.0
05/06:00am 9.1 8.5 7.4 89 0.8 CALM 0 0 0 0 1015.9 1015.9 0.0
05/05:30am 8.5 7.7 6.6 88 0.9 CALM 0 2 0 1 1015.7 1015.7 0.0
05/05:00am 8.9 8.3 7.2 89 0.8 CALM 0 6 0 3 1015.7 1015.7 0.0
05/04:30am 9.0 7.6 7.3 89 0.8 SSW 4 6 2 3 1015.5 1015.5 0.0
05/04:00am 8.5 6.4 6.8 89 0.8 SSW 7 9 4 5 1015.2 1015.2 0.0
05/03:30am 7.5 4.9 6.0 90 0.7 ESE 9 9 5 5 1014.8 1014.8 0.0
05/03:00am 6.7 4.2 4.9 88 0.8 E 7 9 4 5 1014.7 1014.7 0.0
05/02:30am 6.9 4.6 4.9 87 0.9 ESE 6 6 3 3 1015.0 1015.0 0.0
05/02:00am 7.9 6.9 5.7 86 1.0 CALM 0 0 0 0 1015.1 1015.1 0.0
05/01:30am 7.9 5.6 5.7 86 1.0 E 7 9 4 5 1015.0 1015.0 0.0
05/01:00am 7.6 5.8 5.2 85 1.1 E 4 6 2 3 1015.1 1015.1 0.0
05/12:30am 8.1 6.0 5.6 84 1.1 ESE 6 7 3 4 1014.9 1014.9 0.0
05/12:00am 8.5 6.4 5.6 82 1.3 SSE 6 7 3 4 1014.9 1014.9 0.0
 
Date/Time
WST
Temp
°C
App
Temp
°C
Dew
Point
°C
Rel
Hum
%
Delta-T
°C
Wind Press
QNH
hPa
Press
MSL
hPa
Rain since
9am
mm
Dir  Spd
km/h
Gust
km/h
Spd
kts
Gust
kts
04/11:30pm 9.1 6.8 5.8 80 1.5 SSE 7 7 4 4 1015.0 1015.0 0.0
04/11:00pm 9.9 7.7 6.1 77 1.8 SSE 7 7 4 4 1015.1 1015.1 0.0
04/10:30pm 10.6 8.7 6.6 76 1.9 SSE 6 7 3 4 1015.2 1015.2 0.0
04/10:00pm 11.5 9.6 6.8 73 2.2 SSW 6 7 3 4 1015.4 1015.4 0.0
04/09:30pm 11.1 9.0 6.5 73 2.2 S 7 9 4 5 1015.4 1015.4 0.0
04/09:00pm 12.0 9.6 6.9 71 2.4 SSW 9 11 5 6 1015.3 1015.3 0.0
04/08:30pm 12.1 9.2 6.4 68 2.7 SSW 11 13 6 7 1015.0 1015.0 0.0
04/08:00pm 14.0 10.5 7.3 64 3.3 SSW 15 19 8 10 1015.0 1015.0 0.0
04/07:30pm 15.5 11.6 7.3 58 4.1 SSW 17 20 9 11 1014.9 1014.9 0.0
04/07:00pm 16.9 12.4 7.0 52 4.9 SSW 20 30 11 16 1014.7 1014.7 0.0
04/06:30pm 18.3 14.0 7.7 50 5.4 SSW 20 28 11 15 1014.5 1014.5 0.0
04/06:00pm 19.0 13.9 7.8 48 5.7 SW 24 30 13 16 1014.2 1014.2 0.0
04/05:30pm 19.4 14.3 7.8 47 6.0 SW 24 30 13 16 1013.9 1013.9 0.0
04/05:00pm 19.5 13.6 7.6 46 6.1 SSW 28 35 15 19 1013.7 1013.7 0.0
04/04:30pm 20.1 14.7 7.8 45 6.3 SW 26 33 14 18 1013.5 1013.5 0.0
04/04:00pm 20.9 15.5 8.2 44 6.6 SW 26 33 14 18 1013.5 1013.5 0.0
04/03:30pm 21.7 17.1 8.2 42 7.1 WSW 22 32 12 17 1013.3 1013.3 0.0
04/03:00pm 21.5 17.3 8.4 43 6.9 WNW 20 32 11 17 1013.2 1013.2 0.0
04/02:30pm 21.5 17.3 8.4 43 6.9 NNW 20 28 11 15 1013.4 1013.4 0.0
04/02:00pm 21.6 17.5 8.5 43 6.9 NW 20 28 11 15 1013.7 1013.7 0.0
04/01:30pm 20.8 15.8 8.1 44 6.6 NNW 24 30 13 16 1013.9 1013.9 0.0
04/01:00pm 19.3 16.3 7.7 47 5.9 NW 13 28 7 15 1014.3 1014.3 0.0
04/12:30pm 20.3 18.3 7.0 42 6.8 SSE 7 20 4 11 1014.5 1014.5 0.0
04/12:00pm 20.7 18.2 8.4 45 6.4 S 11 26 6 14 1014.8 1014.8 0.0
04/11:30am 19.6 17.0 7.7 46 6.1 SSE 11 20 6 11 1015.0 1015.0 0.0
04/11:00am 20.0 16.0 9.0 49 5.8 SSE 20 30 11 16 1015.4 1015.4 0.0
04/10:30am 18.4 14.3 7.8 50 5.4 S 19 32 10 17 1015.5 1015.5 0.0
04/10:00am 18.0 14.2 7.7 51 5.2 SSW 17 24 9 13 1015.5 1015.5 0.0
04/09:30am 18.5 14.2 7.0 47 5.8 SSW 19 28 10 15 1015.4 1015.4 0.0
04/09:00am 17.3 13.6 6.2 48 5.4 SSW 15 24 8 13 1015.3 1015.3 1.0
04/08:30am 17.9 13.4 6.1 46 5.8 SSW 19 24 10 13 1015.2 1015.2 1.0
04/08:00am 17.2 13.1 6.4 49 5.3 SSW 17 24 9 13 1015.1 1015.1 1.0
04/07:30am 16.2 13.9 8.9 62 3.7 SSW 11 17 6 9 1014.8 1014.8 1.0
04/07:00am 14.0 12.6 9.6 75 2.3 SSW 7 9 4 5 1014.5 1014.5 1.0
04/06:30am 12.3 12.6 10.9 91 0.7 CALM 0 0 0 0 1014.1 1014.1 1.0
04/06:00am 9.0 8.5 7.9 93 0.5 CALM 0 0 0 0 1013.8 1013.8 1.0
04/05:30am 6.7 4.5 5.3 91 0.6 S 6 7 3 4 1013.5 1013.5 1.0
04/05:00am 7.8 7.0 6.4 91 0.6 CALM 0 0 0 0 1013.3 1013.3 1.0
04/04:30am 8.1 7.3 6.6 90 0.7 CALM 0 0 0 0 1013.2 1013.2 1.0
04/04:00am 8.5 7.8 6.8 89 0.8 CALM 0 0 0 0 1012.8 1012.8 1.0
04/03:30am 8.6 7.9 7.1 90 0.7 CALM 0 0 0 0 1012.7 1012.7 1.0
04/03:00am 8.7 8.0 7.0 89 0.8 CALM 0 0 0 0 1012.4 1012.4 1.0
04/02:30am 8.5 7.7 6.5 87 0.9 CALM 0 0 0 0 1012.1 1012.1 1.0
04/02:00am 8.5 7.6 6.1 85 1.1 CALM 0 0 0 0 1012.0 1012.0 1.0
04/01:30am 9.1 8.3 6.4 83 1.2 CALM 0 0 0 0 1011.9 1011.9 1.0
04/01:00am 11.0 10.6 8.1 82 1.4 CALM 0 0 0 0 1011.9 1011.9 1.0
04/12:30am 10.6 10.0 7.5 81 1.5 CALM 0 0 0 0 1011.9 1011.9 1.0
04/12:00am 11.3 9.6 8.2 81 1.5 SSW 7 11 4 6 1011.9 1011.9 1.0
 
Date/Time
WST
Temp
°C
App
Temp
°C
Dew
Point
°C
Rel
Hum
%
Delta-T
°C
Wind Press
QNH
hPa
Press
MSL
hPa
Rain since
9am
mm
Dir  Spd
km/h
Gust
km/h
Spd
kts
Gust
kts
03/11:30pm 12.6 10.3 9.1 79 1.8 SSW 11 13 6 7 1011.9 1011.9 1.0
03/11:00pm 13.2 10.7 9.6 79 1.8 SSW 13 15 7 8 1011.7 1011.7 1.0
03/10:30pm 13.6 11.6 10.2 80 1.8 SSW 11 15 6 8 1011.5 1011.5 1.0
03/10:00pm 14.6 13.5 10.6 77 2.1 WSW 7 9 4 5 1011.4 1011.4 1.0
03/09:30pm 15.2 14.4 11.0 76 2.2 WSW 6 7 3 4 1011.2 1011.2 1.0
03/09:00pm 14.5 13.0 10.5 77 2.1 SW 9 9 5 5 1010.8 1010.8 1.0
03/08:30pm 15.4 12.9 11.0 75 2.3 SW 15 19 8 10 1010.5 1010.5 1.0

Other Formats:

Comma delimited format used in spreadsheet applications
http://www.bom.gov.au/fwo/IDW60801/IDW60801.95611.axf

JavaScript Object Notation format (JSON) in row-major order
http://www.bom.gov.au/fwo/IDW60801/IDW60801.95611.json